Time;durP1;ratioP1;P1;durP2;ratioP2;P2;SDS_P1;SDS_P2;PMS_P1;PMS_P2;Temp;Humidity;BMP_temperature;BMP_pressure;BME280_temperature;BME280_humidity;BME280_pressure;Samples;Min_cycle;Max_cycle;Signal;HPM_P1;HPM_P2
2022/02/16 00:02:12;;;;;;;5.07;3.35;;;8.10;92.90;;;;;;5056936;28;20053;-63
2022/02/16 00:04:39;;;;;;;4.75;2.45;;;8.10;92.90;;;;;;5051545;28;20021;-63
2022/02/16 00:07:05;;;;;;;4.53;2.50;;;8.10;92.90;;;;;;5054873;28;20068;-64
2022/02/16 00:09:31;;;;;;;4.43;2.92;;;8.10;93.00;;;;;;5037182;28;20088;-63
2022/02/16 00:11:57;;;;;;;3.83;2.53;;;8.10;92.70;;;;;;5051772;28;20514;-63
2022/02/16 00:14:22;;;;;;;4.85;3.00;;;8.20;92.70;;;;;;5038355;28;20037;-63
2022/02/16 00:16:48;;;;;;;5.93;2.83;;;8.20;92.70;;;;;;5052414;28;20438;-63
2022/02/16 00:19:14;;;;;;;5.03;3.20;;;8.20;92.60;;;;;;5039901;28;20038;-64
2022/02/16 00:21:39;;;;;;;5.03;3.45;;;8.20;92.50;;;;;;5047153;28;20025;-64
2022/02/16 00:24:05;;;;;;;5.57;2.60;;;8.20;92.60;;;;;;5039037;28;20048;-64
2022/02/16 00:26:31;;;;;;;4.25;2.70;;;8.20;92.50;;;;;;5038314;28;20029;-64
2022/02/16 00:28:56;;;;;;;5.93;2.42;;;8.20;92.40;;;;;;5034183;28;20037;-64
2022/02/16 00:31:22;;;;;;;4.55;2.40;;;8.20;92.30;;;;;;5033639;28;20192;-64
2022/02/16 00:33:47;;;;;;;3.67;2.20;;;8.30;92.30;;;;;;5033628;28;20396;-64
2022/02/16 00:36:13;;;;;;;7.57;2.42;;;8.30;92.30;;;;;;5035712;28;20420;-64
2022/02/16 00:38:38;;;;;;;4.03;2.60;;;8.30;92.30;;;;;;5032681;28;20022;-64
2022/02/16 00:41:04;;;;;;;6.65;3.00;;;8.30;92.40;;;;;;5036438;28;20485;-64
2022/02/16 00:43:29;;;;;;;5.28;2.38;;;8.30;92.40;;;;;;5033387;28;20124;-64
2022/02/16 00:45:55;;;;;;;4.78;2.47;;;8.30;92.40;;;;;;5036044;28;20025;-64
2022/02/16 00:48:21;;;;;;;4.35;2.38;;;8.30;92.40;;;;;;5033303;28;20079;-64
2022/02/16 00:50:46;;;;;;;3.35;2.10;;;8.40;92.50;;;;;;5032842;28;20464;-65
2022/02/16 00:53:12;;;;;;;4.57;2.50;;;8.40;92.50;;;;;;5033288;28;20038;-64
2022/02/16 00:55:37;;;;;;;5.45;2.50;;;8.50;92.50;;;;;;5037381;28;20465;-63
2022/02/16 00:58:06;;;;;;;4.75;2.35;;;8.50;92.60;;;;;;5033437;28;20022;-64
2022/02/16 01:00:33;;;;;;;3.67;2.47;;;8.40;92.50;;;;;;5038433;28;20087;-64
2022/02/16 01:02:58;;;;;;;3.53;2.40;;;8.40;92.50;;;;;;5015536;28;20477;-64
2022/02/16 01:05:24;;;;;;;4.30;2.45;;;8.40;92.70;;;;;;5033672;28;20025;-65
2022/02/16 01:07:49;;;;;;;7.22;2.88;;;8.50;92.70;;;;;;5033208;28;20472;-64
2022/02/16 01:10:16;;;;;;;6.25;2.40;;;8.50;92.70;;;;;;5036297;28;20657;-64
2022/02/16 01:12:41;;;;;;;6.40;2.60;;;8.50;92.70;;;;;;5052621;28;20032;-65
2022/02/16 01:15:07;;;;;;;3.67;2.40;;;8.50;92.80;;;;;;5038992;28;20525;-64
2022/02/16 01:17:33;;;;;;;3.50;2.13;;;8.50;92.80;;;;;;5050095;28;20036;-64
2022/02/16 01:19:58;;;;;;;4.38;2.38;;;8.40;92.90;;;;;;5033674;28;20026;-65
2022/02/16 01:22:24;;;;;;;3.50;2.38;;;8.50;93.00;;;;;;5052190;28;20036;-64
2022/02/16 01:24:50;;;;;;;3.08;1.95;;;8.50;93.10;;;;;;5032679;28;20026;-64
2022/02/16 01:27:15;;;;;;;3.00;2.50;;;8.50;93.10;;;;;;5034686;28;20036;-64
2022/02/16 01:29:41;;;;;;;5.93;2.42;;;8.50;93.20;;;;;;5033573;28;20097;-64
2022/02/16 01:32:07;;;;;;;4.55;2.83;;;8.40;93.20;;;;;;5022930;28;20029;-64
2022/02/16 01:34:33;;;;;;;5.40;2.85;;;8.40;93.30;;;;;;5032049;28;20033;-65
2022/02/16 01:36:58;;;;;;;4.72;2.60;;;8.50;93.50;;;;;;5032903;28;20540;-64
2022/02/16 01:39:24;;;;;;;4.70;2.80;;;8.40;93.50;;;;;;5032696;28;20014;-65
2022/02/16 01:41:52;;;;;;;3.65;2.40;;;8.30;93.60;;;;;;5035863;28;20493;-64
2022/02/16 01:44:21;;;;;;;5.38;2.70;;;8.30;93.70;;;;;;5049316;28;20056;-64
2022/02/16 01:47:07;;;;;;;4.65;2.35;;;8.30;93.90;;;;;;5032010;28;20041;-63
2022/02/16 01:49:34;;;;;;;4.40;2.60;;;8.30;94.00;;;;;;5051560;28;20654;-63
2022/02/16 01:52:00;;;;;;;3.63;2.35;;;8.30;94.00;;;;;;5016799;28;20362;-64
2022/02/16 01:54:26;;;;;;;5.07;2.78;;;8.30;94.10;;;;;;5032125;28;20033;-63
2022/02/16 01:56:52;;;;;;;5.28;2.60;;;8.30;94.20;;;;;;5046382;28;20119;-64
2022/02/16 01:59:20;;;;;;;4.78;2.80;;;8.30;94.20;;;;;;5051827;28;20140;-64
2022/02/16 02:01:46;;;;;;;4.30;2.95;;;8.30;94.30;;;;;;5035627;28;20131;-64
2022/02/16 02:04:13;;;;;;;7.45;3.40;;;8.30;94.40;;;;;;5032198;28;20032;-63
2022/02/16 02:06:39;;;;;;;4.10;2.83;;;8.20;94.50;;;;;;5031539;28;20053;-64
2022/02/16 02:09:05;;;;;;;3.67;2.65;;;8.20;94.60;;;;;;5032002;28;20116;-63
2022/02/16 02:11:30;;;;;;;4.80;2.30;;;8.20;94.70;;;;;;5045985;28;20029;-63
2022/02/16 02:13:59;;;;;;;5.03;2.78;;;8.20;94.80;;;;;;5050504;28;20044;-64
2022/02/16 02:16:26;;;;;;;6.80;2.78;;;8.20;94.90;;;;;;5037985;28;20562;-64
2022/02/16 02:18:51;;;;;;;5.28;2.97;;;8.20;94.90;;;;;;5031834;28;20026;-64
2022/02/16 02:21:21;;;;;;;6.90;3.10;;;8.20;95.00;;;;;;5043344;28;20060;-63
2022/02/16 02:23:48;;;;;;;9.90;2.80;;;8.20;95.00;;;;;;5051403;28;20036;-64
2022/02/16 02:26:14;;;;;;;6.22;3.00;;;8.10;95.00;;;;;;5032590;28;20094;-64
2022/02/16 02:28:40;;;;;;;4.40;2.70;;;8.10;95.10;;;;;;5051615;28;20041;-65
2022/02/16 02:31:06;;;;;;;6.05;3.10;;;8.10;95.20;;;;;;5040261;28;20030;-65
2022/02/16 02:33:31;;;;;;;4.05;2.85;;;8.10;95.30;;;;;;5031590;28;20095;-65
2022/02/16 02:35:57;;;;;;;5.10;2.90;;;8.10;95.30;;;;;;5033944;28;20017;-64
2022/02/16 02:38:23;;;;;;;5.20;3.50;;;8.10;95.40;;;;;;5031476;28;20443;-64
2022/02/16 02:41:00;;;;;;;5.03;3.17;;;8.10;95.50;;;;;;5031426;28;20380;-64
2022/02/16 02:43:26;;;;;;;6.45;3.03;;;8.10;95.60;;;;;;5033201;28;20884;-64
2022/02/16 02:45:52;;;;;;;3.72;3.13;;;8.00;95.60;;;;;;5034203;28;20026;-64
2022/02/16 02:48:25;;;;;;;7.72;3.60;;;8.00;95.70;;;;;;5031131;28;20041;-64
2022/02/16 02:50:53;;;;;;;5.55;3.10;;;8.00;95.80;;;;;;5041388;28;20018;-64
2022/02/16 02:53:19;;;;;;;6.97;2.97;;;7.90;95.80;;;;;;5030865;28;20045;-64
2022/02/16 02:55:44;;;;;;;5.18;3.33;;;8.00;95.80;;;;;;5042332;28;20025;-64
2022/02/16 02:58:10;;;;;;;5.32;2.78;;;7.90;95.80;;;;;;5049883;28;20025;-63
2022/02/16 03:00:36;;;;;;;6.25;3.20;;;7.90;95.90;;;;;;5043555;28;20032;-64
2022/02/16 03:03:02;;;;;;;6.82;3.10;;;8.00;95.90;;;;;;5069478;28;20081;-64
2022/02/16 03:05:28;;;;;;;8.10;2.85;;;8.00;95.90;;;;;;5055342;28;20422;-63
2022/02/16 03:07:53;;;;;;;4.20;2.97;;;8.00;95.90;;;;;;5031047;28;20033;-64
2022/02/16 03:10:19;;;;;;;5.13;2.72;;;8.00;95.90;;;;;;5048251;28;20017;-64
2022/02/16 03:12:44;;;;;;;5.15;3.42;;;8.00;96.10;;;;;;5051051;28;20052;-64
2022/02/16 03:15:10;;;;;;;5.25;3.13;;;8.00;95.90;;;;;;5048685;28;20108;-64
2022/02/16 03:17:36;;;;;;;5.20;3.20;;;8.00;96.00;;;;;;5050953;28;20112;-64
2022/02/16 03:20:04;;;;;;;6.50;3.35;;;8.00;96.00;;;;;;5045179;28;20029;-64
2022/02/16 03:22:29;;;;;;;5.57;2.85;;;8.00;96.00;;;;;;5049521;28;20083;-64
2022/02/16 03:24:54;;;;;;;5.93;2.88;;;8.00;96.00;;;;;;5041174;28;20017;-64
2022/02/16 03:27:20;;;;;;;7.03;3.28;;;8.00;96.00;;;;;;5031090;28;20037;-64
2022/02/16 03:29:45;;;;;;;5.97;2.75;;;8.00;96.00;;;;;;5041070;28;20478;-64
2022/02/16 03:32:11;;;;;;;4.00;2.60;;;8.00;96.00;;;;;;5051029;28;20132;-64
2022/02/16 03:34:36;;;;;;;5.07;3.00;;;8.00;96.00;;;;;;5047004;28;20032;-64
2022/02/16 03:37:02;;;;;;;5.20;3.10;;;8.00;96.10;;;;;;5043594;28;20079;-63
2022/02/16 03:39:28;;;;;;;6.35;2.97;;;8.00;96.10;;;;;;5031493;28;20083;-63
2022/02/16 03:41:53;;;;;;;5.47;3.10;;;8.00;96.10;;;;;;5031023;28;20466;-63
2022/02/16 03:44:20;;;;;;;4.72;3.03;;;8.00;96.10;;;;;;5034073;28;20033;-64
2022/02/16 03:46:46;;;;;;;5.13;2.92;;;8.00;96.00;;;;;;5038188;28;20121;-63
2022/02/16 03:49:12;;;;;;;6.82;3.15;;;8.00;96.00;;;;;;5030388;28;20033;-65
2022/02/16 03:51:38;;;;;;;3.97;3.00;;;7.90;96.00;;;;;;5031180;28;20545;-64
2022/02/16 03:54:03;;;;;;;5.57;3.08;;;8.00;96.10;;;;;;5032081;28;20112;-63
2022/02/16 03:56:29;;;;;;;5.85;2.88;;;7.90;96.10;;;;;;5043999;28;20029;-64
2022/02/16 03:58:54;;;;;;;4.90;3.08;;;8.00;96.10;;;;;;5033857;28;20029;-63
2022/02/16 04:01:20;;;;;;;7.00;2.88;;;7.90;96.10;;;;;;5046311;28;20033;-64
2022/02/16 04:03:46;;;;;;;4.38;2.80;;;8.00;96.20;;;;;;5016155;28;20101;-64
2022/02/16 04:06:11;;;;;;;4.57;2.65;;;8.00;96.20;;;;;;5035537;28;20155;-64
2022/02/16 04:08:37;;;;;;;3.88;2.70;;;8.00;96.20;;;;;;5034354;28;20026;-64
2022/02/16 04:11:03;;;;;;;3.67;2.13;;;8.00;96.20;;;;;;5035545;28;20029;-64
2022/02/16 04:13:29;;;;;;;7.90;3.17;;;8.00;96.10;;;;;;5034153;28;20022;-64
2022/02/16 04:15:55;;;;;;;6.25;2.50;;;8.00;96.10;;;;;;5037007;28;20026;-64
2022/02/16 04:18:20;;;;;;;7.07;3.22;;;8.10;96.10;;;;;;5034298;28;20029;-64
2022/02/16 04:20:46;;;;;;;5.25;3.10;;;8.10;96.10;;;;;;5036408;28;20033;-63
2022/02/16 04:23:12;;;;;;;4.25;2.80;;;8.10;96.10;;;;;;5033953;28;20025;-63
2022/02/16 04:25:38;;;;;;;4.25;2.45;;;8.10;96.10;;;;;;5038587;28;20553;-63
2022/02/16 04:28:04;;;;;;;6.22;2.95;;;8.10;96.10;;;;;;5034110;28;20033;-64
2022/02/16 04:30:33;;;;;;;8.05;3.75;;;8.10;96.10;;;;;;5037829;28;20092;-64
2022/02/16 04:32:58;;;;;;;5.63;2.67;;;8.10;96.10;;;;;;5031638;28;20083;-64
2022/02/16 04:35:25;;;;;;;5.78;2.50;;;8.10;96.10;;;;;;5044006;28;20017;-64
2022/02/16 04:37:50;;;;;;;5.82;2.95;;;8.10;96.10;;;;;;5033812;28;20108;-64
2022/02/16 04:40:17;;;;;;;7.18;2.88;;;8.10;96.10;;;;;;5044328;28;20121;-64
2022/02/16 04:42:43;;;;;;;5.32;2.88;;;8.10;96.10;;;;;;5033587;28;20029;-63
2022/02/16 04:45:09;;;;;;;4.55;2.88;;;8.10;96.10;;;;;;5025608;28;20078;-63
2022/02/16 04:47:34;;;;;;;5.15;2.60;;;8.20;96.10;;;;;;5034052;28;20056;-64
2022/02/16 04:50:00;;;;;;;3.97;2.78;;;8.20;96.10;;;;;;5033390;28;20028;-64
2022/02/16 04:52:34;;;;;;;5.85;2.75;;;8.20;96.10;;;;;;5033713;28;20026;-64
2022/02/16 04:55:03;;;;;;;6.22;2.65;;;8.30;96.10;;;;;;5041868;28;20039;-64
2022/02/16 04:57:28;;;;;;;7.00;2.67;;;8.30;96.10;;;;;;5036289;28;20045;-63
2022/02/16 04:59:58;;;;;;;6.03;3.00;;;8.30;96.10;;;;;;5033217;28;20029;-62
2022/02/16 05:02:27;;;;;;;4.07;2.58;;;8.30;96.10;;;;;;5048576;28;20404;-63
2022/02/16 05:04:53;;;;;;;6.60;2.83;;;8.30;96.10;;;;;;5052220;28;20566;-64
2022/02/16 05:07:19;;;;;;;4.57;2.90;;;8.40;96.10;;;;;;5036143;28;20069;-63
2022/02/16 05:09:45;;;;;;;7.63;2.90;;;8.30;96.00;;;;;;5039711;28;20053;-64
2022/02/16 05:12:10;;;;;;;7.90;3.17;;;8.40;96.00;;;;;;5044135;28;20508;-64
2022/02/16 05:14:36;;;;;;;5.68;2.50;;;8.40;96.00;;;;;;5051361;28;20028;-64
2022/02/16 05:17:02;;;;;;;5.88;2.60;;;8.40;96.00;;;;;;5039373;28;20180;-64
2022/02/16 05:19:27;;;;;;;4.40;2.90;;;8.40;95.90;;;;;;5032453;28;20031;-64
2022/02/16 05:21:53;;;;;;;5.22;2.90;;;8.40;95.90;;;;;;5033006;28;20033;-64
2022/02/16 05:24:19;;;;;;;4.72;2.50;;;8.40;95.90;;;;;;5035915;28;20025;-64
2022/02/16 05:26:45;;;;;;;4.15;2.50;;;8.40;95.90;;;;;;5051517;28;20468;-65
2022/02/16 05:29:11;;;;;;;4.68;2.53;;;8.40;95.90;;;;;;5045459;28;20087;-64
2022/02/16 05:31:36;;;;;;;6.97;3.40;;;8.40;95.90;;;;;;5034329;28;20067;-64
2022/02/16 05:34:02;;;;;;;4.97;2.58;;;8.40;95.90;;;;;;5045451;28;20053;-63
2022/02/16 05:36:27;;;;;;;6.15;2.50;;;8.50;95.90;;;;;;5040109;28;20025;-64
2022/02/16 05:38:53;;;;;;;5.38;2.55;;;8.50;95.90;;;;;;5032521;28;20022;-64
2022/02/16 05:41:18;;;;;;;4.97;2.72;;;8.50;95.90;;;;;;5052469;28;20104;-65
2022/02/16 05:43:44;;;;;;;4.18;2.78;;;8.50;95.90;;;;;;5050768;28;20040;-65
2022/02/16 05:46:11;;;;;;;4.22;2.67;;;8.50;95.90;;;;;;5050077;28;20036;-64
2022/02/16 05:48:36;;;;;;;3.50;2.45;;;8.50;95.90;;;;;;5034473;28;20025;-64
2022/02/16 05:51:02;;;;;;;6.82;3.92;;;8.50;95.90;;;;;;5050455;28;20409;-64
2022/02/16 05:53:28;;;;;;;5.18;2.75;;;8.50;96.00;;;;;;5052101;28;20025;-63
2022/02/16 05:55:53;;;;;;;4.05;2.28;;;8.60;96.00;;;;;;5034560;28;20022;-63
2022/02/16 05:58:19;;;;;;;5.82;2.67;;;8.60;96.00;;;;;;5052169;28;20112;-63
2022/02/16 06:00:45;;;;;;;3.45;2.40;;;8.60;96.00;;;;;;5046890;28;20048;-63
2022/02/16 06:03:10;;;;;;;4.10;2.42;;;8.60;96.00;;;;;;5048294;28;20052;-63
2022/02/16 06:05:35;;;;;;;6.32;2.42;;;8.60;96.00;;;;;;5048856;28;20508;-65
2022/02/16 06:08:01;;;;;;;4.47;2.50;;;8.60;96.00;;;;;;5038264;28;20041;-64
2022/02/16 06:10:26;;;;;;;3.17;2.40;;;8.70;96.00;;;;;;5031705;28;20076;-63
2022/02/16 06:12:52;;;;;;;4.32;2.65;;;8.60;96.00;;;;;;5032031;28;20136;-64
2022/02/16 06:15:17;;;;;;;4.38;2.65;;;8.60;96.00;;;;;;5031932;28;20029;-64
2022/02/16 06:17:43;;;;;;;4.07;2.20;;;8.60;96.10;;;;;;5031511;28;20033;-64
2022/02/16 06:20:09;;;;;;;3.60;2.15;;;8.60;96.10;;;;;;5040976;28;20410;-64
2022/02/16 06:22:35;;;;;;;3.42;2.22;;;8.60;96.10;;;;;;5042873;28;20080;-64
2022/02/16 06:25:00;;;;;;;3.28;2.40;;;8.60;96.20;;;;;;5041504;28;20057;-65
2022/02/16 06:27:26;;;;;;;6.80;2.58;;;8.60;96.20;;;;;;5038410;28;20033;-64
2022/02/16 06:29:51;;;;;;;4.97;2.60;;;8.60;96.30;;;;;;5049573;28;20235;-64
2022/02/16 06:32:17;;;;;;;4.85;2.53;;;8.60;96.40;;;;;;5036018;28;20044;-64
2022/02/16 06:34:42;;;;;;;6.07;2.72;;;8.60;96.40;;;;;;5020157;28;20471;-63
2022/02/16 06:37:08;;;;;;;4.50;2.50;;;8.60;96.40;;;;;;5048059;28;20030;-64
2022/02/16 06:39:34;;;;;;;4.03;2.53;;;8.60;96.40;;;;;;5044280;28;20476;-64
2022/02/16 06:41:59;;;;;;;5.93;2.88;;;8.60;96.50;;;;;;5049492;28;20025;-64
2022/02/16 06:44:24;;;;;;;4.22;2.15;;;8.60;96.60;;;;;;5035828;28;20114;-64
2022/02/16 06:46:50;;;;;;;3.63;2.50;;;8.60;96.60;;;;;;5050743;28;20033;-64
2022/02/16 06:49:15;;;;;;;4.35;2.40;;;8.60;96.60;;;;;;5033992;28;20107;-64
2022/02/16 06:51:42;;;;;;;4.75;2.42;;;8.60;96.60;;;;;;5033545;28;20033;-64
2022/02/16 06:54:08;;;;;;;3.95;2.40;;;8.60;96.60;;;;;;5030785;28;20041;-65
2022/02/16 06:56:33;;;;;;;4.03;2.47;;;8.60;96.60;;;;;;5031431;28;20030;-63
2022/02/16 06:58:59;;;;;;;3.28;2.38;;;8.60;96.70;;;;;;5043123;28;20032;-63
2022/02/16 07:01:24;;;;;;;3.63;2.40;;;8.60;96.80;;;;;;5044260;28;20580;-64
2022/02/16 07:03:50;;;;;;;3.15;2.17;;;8.50;96.80;;;;;;5047386;28;20504;-64
2022/02/16 07:06:15;;;;;;;7.15;2.53;;;8.60;96.90;;;;;;5043290;28;20021;-65
2022/02/16 07:08:41;;;;;;;4.00;2.50;;;8.60;96.90;;;;;;5046938;28;20514;-64
2022/02/16 07:11:06;;;;;;;7.00;3.60;;;8.60;96.90;;;;;;5049044;28;20117;-64
2022/02/16 07:13:32;;;;;;;3.95;2.22;;;8.60;97.00;;;;;;5049494;28;20029;-64
2022/02/16 07:15:58;;;;;;;3.63;2.40;;;8.60;97.00;;;;;;5033161;28;20036;-64
2022/02/16 07:18:27;;;;;;;4.72;2.50;;;8.60;97.10;;;;;;5013692;28;20025;-64
2022/02/16 07:20:52;;;;;;;3.25;2.17;;;8.50;97.00;;;;;;5031226;28;20052;-65
2022/02/16 07:23:18;;;;;;;4.30;2.38;;;8.60;97.10;;;;;;5031256;28;20025;-64
2022/02/16 07:25:43;;;;;;;5.78;2.65;;;8.60;97.10;;;;;;5042208;28;20052;-64
2022/02/16 07:28:10;;;;;;;5.80;3.25;;;8.60;97.10;;;;;;5040229;28;20047;-64
2022/02/16 07:30:36;;;;;;;7.47;2.40;;;8.60;97.40;;;;;;5047834;28;20021;-64
2022/02/16 07:33:02;;;;;;;2.78;2.08;;;8.60;97.20;;;;;;5041096;28;20111;-63
2022/02/16 07:35:28;;;;;;;3.15;2.00;;;8.60;97.20;;;;;;5043032;28;20116;-64
2022/02/16 07:37:55;;;;;;;4.55;2.40;;;8.60;97.30;;;;;;5038717;28;20029;-63
2022/02/16 07:40:21;;;;;;;3.97;2.22;;;8.60;97.30;;;;;;5044839;28;20029;-64
2022/02/16 07:42:46;;;;;;;5.50;2.38;;;8.70;97.30;;;;;;5047258;28;20041;-65
2022/02/16 07:45:12;;;;;;;5.57;2.13;;;8.60;97.30;;;;;;5048471;28;20032;-65
2022/02/16 07:47:38;;;;;;;3.90;2.30;;;8.70;97.30;;;;;;5053082;28;20033;-64
2022/02/16 07:50:04;;;;;;;3.97;2.33;;;8.60;97.30;;;;;;5038592;28;20414;-65
2022/02/16 07:52:33;;;;;;;5.68;2.20;;;8.70;97.40;;;;;;5053733;28;20040;-65
2022/02/16 07:54:59;;;;;;;3.38;2.20;;;8.70;97.30;;;;;;5045821;28;20025;-64
2022/02/16 07:57:25;;;;;;;3.30;2.10;;;8.80;97.40;;;;;;5040154;28;20037;-64
2022/02/16 07:59:50;;;;;;;3.40;1.80;;;8.80;97.40;;;;;;5053788;28;20380;-65
2022/02/16 08:02:16;;;;;;;3.42;2.20;;;8.80;97.30;;;;;;5049715;28;20053;-65
2022/02/16 08:04:41;;;;;;;3.05;1.70;;;8.90;97.40;;;;;;5044532;28;20155;-63
2022/02/16 08:07:07;;;;;;;3.70;2.17;;;8.90;97.60;;;;;;5042281;28;20037;-64
2022/02/16 08:09:33;;;;;;;4.07;2.40;;;8.90;97.40;;;;;;5043642;28;20032;-64
2022/02/16 08:11:58;;;;;;;3.15;1.80;;;8.90;97.50;;;;;;5063452;28;20032;-64
2022/02/16 08:14:24;;;;;;;7.55;2.10;;;9.00;97.40;;;;;;5057109;28;20021;-64
2022/02/16 08:16:49;;;;;;;2.90;1.90;;;9.00;97.40;;;;;;5026233;28;20056;-64
2022/02/16 08:19:15;;;;;;;3.38;1.65;;;9.10;97.40;;;;;;5051030;28;20104;-65
2022/02/16 08:21:42;;;;;;;2.85;1.52;;;9.10;97.30;;;;;;5052657;28;20017;-65
2022/02/16 08:24:08;;;;;;;2.75;1.50;;;9.20;97.30;;;;;;5035353;28;20036;-65
2022/02/16 08:26:34;;;;;;;2.30;1.55;;;9.20;97.30;;;;;;5052645;28;20025;-64
2022/02/16 08:29:00;;;;;;;2.08;1.50;;;9.20;97.30;;;;;;5047597;28;20028;-64
2022/02/16 08:31:25;;;;;;;2.78;1.58;;;9.20;97.30;;;;;;5044622;28;20025;-64
2022/02/16 08:33:50;;;;;;;3.70;1.88;;;9.30;97.40;;;;;;5043268;28;20029;-64
2022/02/16 08:36:16;;;;;;;1.92;1.45;;;9.40;97.40;;;;;;5044591;28;20041;-64
2022/02/16 08:38:43;;;;;;;2.75;1.70;;;9.40;97.20;;;;;;5051942;28;20025;-64
2022/02/16 08:41:09;;;;;;;3.70;1.50;;;9.50;97.20;;;;;;5042903;28;20025;-64
2022/02/16 08:43:35;;;;;;;3.53;1.45;;;9.50;97.10;;;;;;5058355;28;20555;-65
2022/02/16 08:46:00;;;;;;;2.35;1.67;;;9.50;97.10;;;;;;5043254;28;20120;-65
2022/02/16 08:48:27;;;;;;;2.33;1.50;;;9.50;97.00;;;;;;5064107;28;20044;-64
2022/02/16 08:50:54;;;;;;;2.60;1.55;;;9.60;97.00;;;;;;5038776;28;20077;-64
2022/02/16 08:53:20;;;;;;;2.65;1.30;;;9.50;97.00;;;;;;5038989;28;20055;-64
2022/02/16 08:55:45;;;;;;;3.53;1.35;;;9.50;96.90;;;;;;5049722;28;20025;-63
2022/02/16 08:58:12;;;;;;;3.33;1.38;;;9.60;97.00;;;;;;5053417;28;20013;-64
2022/02/16 09:00:38;;;;;;;2.17;1.30;;;9.70;96.90;;;;;;5047716;28;20124;-64
2022/02/16 09:03:04;;;;;;;4.75;1.63;;;9.70;96.90;;;;;;5043531;28;20108;-64
2022/02/16 09:05:29;;;;;;;1.85;1.20;;;9.70;96.80;;;;;;5045235;28;20374;-64
2022/02/16 09:07:54;;;;;;;2.05;1.20;;;9.70;96.80;;;;;;5055186;28;20040;-64
2022/02/16 09:10:20;;;;;;;2.80;1.92;;;9.80;96.70;;;;;;5040943;28;20528;-64
2022/02/16 09:12:45;;;;;;;1.77;1.27;;;9.80;96.60;;;;;;5053300;28;20025;-64
2022/02/16 09:15:11;;;;;;;3.88;1.70;;;9.80;96.50;;;;;;5047354;28;20025;-65
2022/02/16 09:17:37;;;;;;;2.38;1.35;;;9.80;96.50;;;;;;5043944;28;20029;-65
2022/02/16 09:20:05;;;;;;;1.98;1.27;;;9.80;96.30;;;;;;5039262;28;20089;-65
2022/02/16 09:22:31;;;;;;;2.33;1.20;;;9.80;96.40;;;;;;5037677;28;20060;-65
2022/02/16 09:24:57;;;;;;;2.80;1.58;;;9.80;96.30;;;;;;5045405;28;20021;-65
2022/02/16 09:27:23;;;;;;;1.50;1.00;;;9.80;96.30;;;;;;5052551;28;20040;-64
2022/02/16 09:29:49;;;;;;;1.40;1.13;;;9.80;96.30;;;;;;5060919;28;20055;-64
2022/02/16 09:32:16;;;;;;;3.17;1.45;;;9.80;96.40;;;;;;5052690;28;20033;-64
2022/02/16 09:34:43;;;;;;;1.83;1.10;;;9.90;96.40;;;;;;5046821;28;20028;-64
2022/02/16 09:37:09;;;;;;;1.80;1.13;;;9.90;96.50;;;;;;5050696;28;20048;-64
2022/02/16 09:39:34;;;;;;;2.45;1.48;;;9.90;96.40;;;;;;5038864;28;20064;-64
2022/02/16 09:42:00;;;;;;;1.52;1.05;;;10.00;96.30;;;;;;5020146;28;20127;-63
2022/02/16 09:44:35;;;;;;;1.88;1.10;;;10.00;96.30;;;;;;5036682;28;20026;-64
2022/02/16 09:47:05;;;;;;;1.92;1.10;;;10.00;96.30;;;;;;5036853;28;20118;-65
2022/02/16 09:49:33;;;;;;;1.75;1.15;;;10.00;96.30;;;;;;5038853;28;20064;-64
2022/02/16 09:51:59;;;;;;;1.55;1.30;;;10.00;96.30;;;;;;5044862;28;20029;-64
2022/02/16 09:54:25;;;;;;;2.58;1.38;;;10.00;96.20;;;;;;5039187;28;20099;-64
2022/02/16 09:56:50;;;;;;;2.90;1.38;;;10.00;96.20;;;;;;5035219;28;20053;-64
2022/02/16 09:59:15;;;;;;;2.10;1.10;;;10.00;96.20;;;;;;5035662;28;20017;-64
2022/02/16 10:02:09;;;;;;;1.30;0.90;;;10.00;96.30;;;;;;5015254;28;20056;-64
2022/02/16 10:04:37;;;;;;;1.65;1.25;;;10.00;96.30;;;;;;5019855;28;20140;-65
2022/02/16 10:07:20;;;;;;;1.90;1.10;;;10.00;96.50;;;;;;5024278;28;20049;-64
2022/02/16 10:09:45;;;;;;;2.17;1.27;;;10.00;96.40;;;;;;5018525;28;20030;-64
2022/02/16 10:12:11;;;;;;;3.40;1.60;;;10.00;96.40;;;;;;5022182;28;20129;-64
2022/02/16 10:14:38;;;;;;;1.85;1.33;;;10.00;96.50;;;;;;5025385;28;20464;-64
2022/02/16 10:17:22;;;;;;;2.63;1.40;;;10.00;96.50;;;;;;5019235;28;20037;-64
2022/02/16 10:19:56;;;;;;;1.90;1.27;;;10.00;96.60;;;;;;5036309;28;20064;-64
2022/02/16 10:22:43;;;;;;;3.03;1.52;;;10.00;96.70;;;;;;5031697;28;20137;-64
2022/02/16 10:25:14;;;;;;;3.97;1.40;;;10.00;96.90;;;;;;5027507;28;20030;-64
2022/02/16 10:27:40;;;;;;;2.55;1.60;;;10.00;96.90;;;;;;5029976;28;20388;-64
2022/02/16 10:30:14;;;;;;;2.42;1.45;;;9.90;96.90;;;;;;5029959;28;20036;-64
2022/02/16 10:32:40;;;;;;;1.55;1.13;;;9.90;97.10;;;;;;5031052;28;20124;-65
2022/02/16 10:35:07;;;;;;;4.97;1.58;;;9.90;97.00;;;;;;5029302;28;20037;-64
2022/02/16 10:37:35;;;;;;;2.17;1.48;;;9.80;97.10;;;;;;5031184;28;20048;-64
2022/02/16 10:40:10;;;;;;;2.70;1.60;;;9.80;97.10;;;;;;5028799;28;20033;-64
2022/02/16 10:42:56;;;;;;;2.60;1.33;;;9.80;97.20;;;;;;5031388;28;20025;-63
2022/02/16 10:45:23;;;;;;;2.90;1.50;;;9.80;97.20;;;;;;5029620;28;20033;-65
2022/02/16 10:47:56;;;;;;;4.45;1.50;;;9.80;97.30;;;;;;5030893;28;20481;-65
2022/02/16 10:50:26;;;;;;;3.47;1.98;;;9.70;97.30;;;;;;5029395;28;20075;-64
2022/02/16 10:52:55;;;;;;;4.55;1.67;;;9.70;97.40;;;;;;5031122;28;20033;-64
2022/02/16 10:55:35;;;;;;;1.88;1.40;;;9.70;97.40;;;;;;5028992;28;20022;-63
2022/02/16 10:58:03;;;;;;;4.43;1.70;;;9.70;97.60;;;;;;5031351;28;20033;-63
2022/02/16 11:00:31;;;;;;;1.83;1.33;;;9.70;97.60;;;;;;5034080;28;20033;-64
2022/02/16 11:02:58;;;;;;;2.80;1.45;;;9.80;97.70;;;;;;5031896;28;20044;-64
2022/02/16 11:05:24;;;;;;;2.58;1.27;;;9.70;97.70;;;;;;5049160;28;20094;-64
2022/02/16 11:07:51;;;;;;;4.15;1.75;;;9.70;97.80;;;;;;5050763;28;20033;-64
2022/02/16 11:10:20;;;;;;;2.47;1.40;;;9.70;97.90;;;;;;5049219;28;20481;-64
2022/02/16 11:12:46;;;;;;;3.05;1.70;;;9.70;98.00;;;;;;5047241;28;20033;-64
2022/02/16 11:15:13;;;;;;;1.77;1.35;;;9.70;98.10;;;;;;5040286;28;20277;-63
2022/02/16 11:17:39;;;;;;;2.85;1.60;;;9.70;98.10;;;;;;5050406;28;20036;-64
2022/02/16 11:20:25;;;;;;;4.07;1.50;;;9.80;98.10;;;;;;5049119;28;20031;-63
2022/02/16 11:22:55;;;;;;;2.13;1.50;;;9.80;98.30;;;;;;5050542;28;20409;-64
2022/02/16 11:25:36;;;;;;;1.63;1.15;;;9.90;98.10;;;;;;5041048;28;20033;-63
2022/02/16 11:28:05;;;;;;;4.25;1.35;;;9.90;98.20;;;;;;5012734;28;20037;-63
2022/02/16 11:30:38;;;;;;;3.25;1.70;;;9.90;98.20;;;;;;5033850;28;20080;-64
2022/02/16 11:33:11;;;;;;;2.58;1.70;;;10.00;98.30;;;;;;5030565;28;20081;-63
2022/02/16 11:35:59;;;;;;;1.77;1.30;;;9.90;98.20;;;;;;5043664;28;20028;-64
2022/02/16 11:38:39;;;;;;;3.53;1.50;;;10.00;98.20;;;;;;5050233;28;20021;-64
2022/02/16 11:41:27;;;;;;;2.13;1.40;;;10.00;98.10;;;;;;5048926;28;20029;-64
2022/02/16 11:44:00;;;;;;;2.50;1.73;;;10.10;98.10;;;;;;5049202;28;20039;-66
2022/02/16 11:46:54;;;;;;;3.45;1.50;;;10.10;98.10;;;;;;5012991;28;20049;-64
2022/02/16 11:49:25;;;;;;;4.28;1.88;;;10.10;98.10;;;;;;5033650;28;20551;-64
2022/02/16 11:51:52;;;;;;;3.65;1.67;;;10.00;98.10;;;;;;5050207;28;20168;-64
2022/02/16 11:54:43;;;;;;;3.47;1.80;;;10.00;98.20;;;;;;5048861;28;20029;-64
2022/02/16 11:57:32;;;;;;;2.83;1.40;;;10.00;98.30;;;;;;5050262;28;20029;-64
2022/02/16 11:59:59;;;;;;;2.97;1.30;;;9.90;98.30;;;;;;5040429;28;20036;-64
2022/02/16 12:02:25;;;;;;;4.60;1.50;;;9.90;98.40;;;;;;5030759;28;20029;-65
2022/02/16 12:04:56;;;;;;;2.63;1.40;;;9.90;98.40;;;;;;5037131;28;20018;-65
2022/02/16 12:07:28;;;;;;;2.10;1.60;;;9.90;98.60;;;;;;5049891;28;20083;-64
2022/02/16 12:10:19;;;;;;;4.90;1.80;;;9.90;98.60;;;;;;5040871;28;20116;-64
2022/02/16 12:12:46;;;;;;;2.10;1.50;;;9.90;98.60;;;;;;5029029;28;20033;-64
2022/02/16 12:15:13;;;;;;;4.28;2.35;;;9.90;98.70;;;;;;5036949;28;20026;-64
2022/02/16 12:17:41;;;;;;;4.60;2.33;;;9.80;98.70;;;;;;5053046;28;20033;-64
2022/02/16 12:20:07;;;;;;;2.42;1.92;;;9.90;98.80;;;;;;5049083;28;20110;-64
2022/02/16 12:22:33;;;;;;;2.45;1.63;;;9.90;98.80;;;;;;5053509;28;20496;-65
2022/02/16 12:25:14;;;;;;;3.30;1.75;;;9.90;98.90;;;;;;5051711;28;20048;-64
2022/02/16 12:27:44;;;;;;;2.33;1.60;;;9.90;98.90;;;;;;5052617;28;20044;-64
2022/02/16 12:30:10;;;;;;;3.25;1.85;;;9.90;99.00;;;;;;5051174;28;20098;-64
2022/02/16 12:32:36;;;;;;;2.35;1.73;;;9.90;98.90;;;;;;5051725;28;20114;-64
2022/02/16 12:35:04;;;;;;;3.53;2.00;;;9.80;99.00;;;;;;5050689;28;20083;-64
2022/02/16 12:37:29;;;;;;;3.53;1.92;;;9.90;99.00;;;;;;5061947;28;20418;-64
2022/02/16 12:39:59;;;;;;;6.38;1.85;;;9.90;99.00;;;;;;5032562;28;20033;-64
2022/02/16 12:42:32;;;;;;;2.60;1.60;;;9.90;99.00;;;;;;5046063;28;20020;-64
2022/02/16 12:44:58;;;;;;;4.28;1.80;;;9.90;99.10;;;;;;5049346;28;20420;-64
2022/02/16 12:47:25;;;;;;;2.85;1.83;;;9.90;99.10;;;;;;5066383;28;20060;-63
2022/02/16 12:49:52;;;;;;;2.95;2.10;;;9.90;99.10;;;;;;5043940;28;20017;-65
2022/02/16 12:52:18;;;;;;;3.45;1.95;;;9.90;99.40;;;;;;5053715;28;20072;-64
2022/02/16 12:54:44;;;;;;;1.65;1.40;;;9.90;99.20;;;;;;5047228;28;20584;-64
2022/02/16 12:57:11;;;;;;;3.05;1.63;;;9.90;99.20;;;;;;5051369;28;20028;-65